< < Back
Terminal Aerodrome Forecast


Current Version              Previous Versions:   1  2  3  4  5  6  7  8  9  

Terminal Aerodrome Forecast

728
FTUS42 KMLB 021720
TAFDAB
TAF
KDAB 021720Z 0218/0318 21012KT P6SM VCSH SCT040 BKN080
     FM022200 22010KT P6SM VCSH SCT030 OVC060
     FM030200 19007KT P6SM FEW035 BKN090 OVC200=

Latest METAR

026
SAUS80 KWBC 030400 RRA
MTRDAB
METAR KDAB 030353Z 18006KT 10SM FEW090 SCT150 SCT250 24/22 A2994 RMK AO2
SLP137 T02440217


USA.gov is the U.S. government's official web portal to all federal, state and local government web resources and services.